Time;durP1;ratioP1;P1;durP2;ratioP2;P2;SDS_P1;SDS_P2;PMS_P1;PMS_P2;Temp;Humidity;BMP_temperature;BMP_pressure;BME280_temperature;BME280_humidity;BME280_pressure;Samples;Min_cycle;Max_cycle;Signal;HPM_P1;HPM_P2
2020/12/27 06:00:30;;;;;;;21.60;5.80;;;1.10;97.30;;;;;;5970272;23;20323;31
2020/12/27 06:03:00;;;;;;;10.40;4.93;;;1.10;97.30;;;;;;4912608;29;20503;-70
2020/12/27 06:05:54;;;;;;;14.27;5.17;;;1.10;97.30;;;;;;4930847;29;20420;-69
2020/12/27 06:08:29;;;;;;;10.80;5.20;;;1.10;97.30;;;;;;4915047;29;20411;-69
2020/12/27 06:11:20;;;;;;;8.80;5.13;;;1.10;97.30;;;;;;4910127;29;21086;-70
2020/12/27 06:13:58;;;;;;;14.07;4.73;;;1.00;97.30;;;;;;4901135;29;20417;-69
2020/12/27 06:16:45;;;;;;;8.50;4.80;;;1.00;97.30;;;;;;4915830;29;20998;-70
2020/12/27 06:19:31;;;;;;;7.87;3.90;;;1.00;97.30;;;;;;4899930;29;20955;-70
2020/12/27 06:22:07;;;;;;;10.90;4.20;;;1.00;97.30;;;;;;4911924;29;20464;-69
2020/12/27 06:24:37;;;;;;;8.43;4.30;;;1.00;97.30;;;;;;4899753;29;20455;-70
2020/12/27 06:27:05;;;;;;;5.80;4.03;;;1.00;97.30;;;;;;4899595;29;20421;-70
2020/12/27 06:29:33;;;;;;;8.20;3.80;;;1.00;97.30;;;;;;4900076;29;20793;-69
2020/12/27 06:32:05;;;;;;;5.90;3.60;;;1.00;97.30;;;;;;4899286;29;20502;-70
2020/12/27 06:34:31;;;;;;;5.13;3.37;;;1.00;97.30;;;;;;4899335;29;20496;-70
2020/12/27 06:37:01;;;;;;;6.60;3.17;;;0.90;97.30;;;;;;4899510;29;20421;-70
2020/12/27 06:39:30;;;;;;;7.70;3.80;;;1.00;97.30;;;;;;4899107;29;20444;-70
2020/12/27 06:42:19;;;;;;;4.17;2.13;;;0.90;97.30;;;;;;4896604;29;20465;-70
2020/12/27 06:44:50;;;;;;;7.63;3.30;;;0.90;97.30;;;;;;4898772;29;20410;-70
2020/12/27 06:47:17;;;;;;;4.53;3.37;;;0.90;97.30;;;;;;4899316;29;20410;-69
2020/12/27 06:49:45;;;;;;;5.17;3.60;;;0.90;97.20;;;;;;4900401;29;20444;-70
2020/12/27 06:52:22;;;;;;;4.70;3.20;;;0.90;97.10;;;;;;4899240;29;20492;-70
2020/12/27 06:54:49;;;;;;;5.67;3.40;;;0.90;96.80;;;;;;4898987;29;20783;-71
2020/12/27 06:57:45;;;;;;;6.10;4.43;;;0.90;96.40;;;;;;4898825;29;20822;-71
2020/12/27 07:00:17;;;;;;;5.17;3.20;;;0.90;96.40;;;;;;4898891;29;20429;-70
2020/12/27 07:02:45;;;;;;;6.97;3.63;;;0.90;96.20;;;;;;4898394;29;20469;-71
2020/12/27 07:05:30;;;;;;;7.00;3.87;;;0.90;96.10;;;;;;4899894;29;20468;-70
2020/12/27 07:07:56;;;;;;;6.20;3.20;;;0.90;96.30;;;;;;4898572;29;20421;-70
2020/12/27 07:10:25;;;;;;;7.30;3.43;;;0.90;96.20;;;;;;4900023;29;20437;-70
2020/12/27 07:12:51;;;;;;;9.10;3.30;;;0.90;96.10;;;;;;4900001;29;20421;-70
2020/12/27 07:15:19;;;;;;;6.10;4.10;;;0.90;96.00;;;;;;4897699;29;20441;-70
2020/12/27 07:17:46;;;;;;;6.03;3.13;;;0.80;96.20;;;;;;4898361;29;20421;-70
2020/12/27 07:20:17;;;;;;;5.37;4.27;;;0.80;96.20;;;;;;4898433;29;20418;-71
2020/12/27 07:22:43;;;;;;;4.67;3.40;;;0.80;96.10;;;;;;4898537;29;20955;-71
2020/12/27 07:25:15;;;;;;;4.23;2.87;;;0.80;96.00;;;;;;4899544;29;20417;-70
2020/12/27 07:27:42;;;;;;;4.97;3.20;;;0.70;96.00;;;;;;4897344;29;20474;-70
2020/12/27 07:30:10;;;;;;;9.90;3.53;;;0.80;95.30;;;;;;4899692;29;20421;-70
2020/12/27 07:32:54;;;;;;;5.50;3.37;;;0.80;95.10;;;;;;4898119;29;20425;-70
2020/12/27 07:35:23;;;;;;;4.80;3.00;;;0.80;95.00;;;;;;4896045;29;20413;-70
2020/12/27 07:38:00;;;;;;;6.43;3.40;;;0.70;95.00;;;;;;4898070;29;20413;-70
2020/12/27 07:40:37;;;;;;;4.73;2.80;;;0.70;94.90;;;;;;4897902;29;20444;-70
2020/12/27 07:43:10;;;;;;;6.37;3.67;;;0.80;95.00;;;;;;4899574;29;20460;-70
2020/12/27 07:45:36;;;;;;;6.33;3.47;;;0.80;94.50;;;;;;4898092;29;20482;-70
2020/12/27 07:48:01;;;;;;;5.03;3.40;;;0.70;94.60;;;;;;4899685;29;20416;-70
2020/12/27 07:50:27;;;;;;;3.53;2.90;;;0.80;94.60;;;;;;4897632;29;20968;-71
2020/12/27 07:52:59;;;;;;;8.63;3.17;;;0.70;94.50;;;;;;4897983;29;20717;-70
2020/12/27 07:55:26;;;;;;;5.83;3.50;;;0.70;94.50;;;;;;4898907;29;20179;-70
2020/12/27 07:57:53;;;;;;;6.67;3.63;;;0.70;94.40;;;;;;4898065;29;20578;-70
2020/12/27 08:00:33;;;;;;;7.20;3.03;;;0.70;94.50;;;;;;4898307;29;20457;-71
2020/12/27 08:03:07;;;;;;;3.87;3.03;;;0.70;94.20;;;;;;4897592;29;20851;-70
2020/12/27 08:05:34;;;;;;;4.40;3.10;;;0.70;94.30;;;;;;4897368;29;20413;-71
2020/12/27 08:08:08;;;;;;;5.73;3.70;;;0.70;94.40;;;;;;4897319;29;20418;-72
2020/12/27 08:10:34;;;;;;;9.43;3.70;;;0.70;94.10;;;;;;4897306;29;20440;-70
2020/12/27 08:13:02;;;;;;;10.03;3.83;;;0.70;94.30;;;;;;4898889;29;20454;-70
2020/12/27 08:15:29;;;;;;;5.80;3.20;;;0.70;94.10;;;;;;4897128;29;20441;-70
2020/12/27 08:17:57;;;;;;;5.63;3.60;;;0.70;94.20;;;;;;4897094;29;20428;-71
2020/12/27 08:20:24;;;;;;;5.30;3.43;;;0.70;94.20;;;;;;4898567;29;20919;-71
2020/12/27 08:23:03;;;;;;;6.10;3.50;;;0.80;94.10;;;;;;4898570;29;20457;-70
2020/12/27 08:25:29;;;;;;;7.30;3.67;;;0.80;93.90;;;;;;4885134;29;20413;-70
2020/12/27 08:27:57;;;;;;;5.53;2.93;;;0.80;94.00;;;;;;4898268;29;20418;-72
2020/12/27 08:30:24;;;;;;;5.97;4.23;;;0.80;94.00;;;;;;4897177;29;21009;-69
2020/12/27 08:33:05;;;;;;;5.90;3.30;;;0.90;93.90;;;;;;4897223;29;20437;-69
2020/12/27 08:35:31;;;;;;;6.57;3.90;;;0.90;93.80;;;;;;4898223;29;20496;-69
2020/12/27 08:38:06;;;;;;;6.53;4.37;;;0.90;94.00;;;;;;4898742;29;20500;-69
2020/12/27 08:40:39;;;;;;;5.83;3.90;;;0.90;94.00;;;;;;4897496;29;20438;-69
2020/12/27 08:43:12;;;;;;;5.20;4.20;;;1.00;93.90;;;;;;4897425;29;20453;-69
2020/12/27 08:45:41;;;;;;;7.03;4.00;;;1.00;93.80;;;;;;4898596;29;20493;-69
2020/12/27 08:48:24;;;;;;;5.60;3.80;;;1.00;94.00;;;;;;4897238;29;20431;-69
2020/12/27 08:50:56;;;;;;;6.00;4.10;;;1.10;93.90;;;;;;4897326;29;20444;-72
2020/12/27 08:53:22;;;;;;;6.47;3.80;;;1.10;93.60;;;;;;4897479;29;20418;-71
2020/12/27 08:55:48;;;;;;;6.37;3.83;;;1.10;93.40;;;;;;4897387;29;20421;-70
2020/12/27 08:58:14;;;;;;;5.90;3.87;;;1.20;93.20;;;;;;4897280;29;20459;-69
2020/12/27 09:00:47;;;;;;;8.17;4.63;;;1.20;93.10;;;;;;4897385;29;20477;-71
2020/12/27 09:03:13;;;;;;;8.23;3.70;;;1.30;92.90;;;;;;4897561;29;20260;-69
2020/12/27 09:05:39;;;;;;;6.37;3.63;;;1.30;92.90;;;;;;4897234;29;20512;-70
2020/12/27 09:08:18;;;;;;;4.47;3.10;;;1.30;92.60;;;;;;4896936;29;20192;-71
2020/12/27 09:10:45;;;;;;;7.10;4.33;;;1.30;92.30;;;;;;4897260;29;20203;-69
2020/12/27 09:13:12;;;;;;;5.00;3.17;;;1.40;92.20;;;;;;4897144;29;20418;-70
2020/12/27 09:15:48;;;;;;;6.30;3.63;;;1.40;91.90;;;;;;4896562;29;20406;-70
2020/12/27 09:18:16;;;;;;;5.33;3.17;;;1.40;91.70;;;;;;4898224;29;20409;-70
2020/12/27 09:20:43;;;;;;;9.03;4.30;;;1.40;91.70;;;;;;4898483;29;20484;-70
2020/12/27 09:23:20;;;;;;;5.47;3.77;;;1.50;91.40;;;;;;4898607;29;20413;-69
2020/12/27 09:25:48;;;;;;;8.20;4.47;;;1.50;91.00;;;;;;4898336;29;20409;-70
2020/12/27 09:28:22;;;;;;;4.60;3.30;;;1.50;91.40;;;;;;4898225;29;20496;-70
2020/12/27 09:31:02;;;;;;;4.93;3.53;;;1.40;90.90;;;;;;4896893;29;20807;-70
2020/12/27 09:33:29;;;;;;;5.70;2.97;;;1.40;91.00;;;;;;4896832;29;20422;-71
2020/12/27 09:35:59;;;;;;;6.60;3.80;;;1.50;90.90;;;;;;4896665;29;20476;-70
2020/12/27 09:38:27;;;;;;;5.33;4.13;;;1.40;90.90;;;;;;4896682;29;20406;-69
2020/12/27 09:41:13;;;;;;;5.40;3.90;;;1.40;91.00;;;;;;4896556;29;20585;-70
2020/12/27 09:43:58;;;;;;;6.93;3.07;;;1.40;91.00;;;;;;4896616;29;20456;-70
2020/12/27 09:46:42;;;;;;;6.67;4.40;;;1.40;90.60;;;;;;4898983;29;20416;-70
2020/12/27 09:49:18;;;;;;;4.43;3.30;;;1.40;90.60;;;;;;4881760;29;20525;-70
2020/12/27 09:51:45;;;;;;;6.20;3.50;;;1.40;90.60;;;;;;4897387;29;20445;-70
2020/12/27 09:54:11;;;;;;;6.87;3.37;;;1.40;90.60;;;;;;4896680;29;20924;-70
2020/12/27 09:56:43;;;;;;;5.57;3.70;;;1.40;90.30;;;;;;4881748;29;20433;-70
2020/12/27 09:59:10;;;;;;;3.70;2.97;;;1.40;90.60;;;;;;4882918;29;20593;-70
2020/12/27 10:01:38;;;;;;;5.63;3.10;;;1.40;90.60;;;;;;4882687;29;21039;-71
2020/12/27 10:04:04;;;;;;;5.23;4.03;;;1.40;90.60;;;;;;4880827;29;20438;-71
2020/12/27 10:06:32;;;;;;;4.70;2.77;;;1.40;90.70;;;;;;4882641;29;20410;-70
2020/12/27 10:08:58;;;;;;;4.43;3.20;;;1.40;90.60;;;;;;4880950;29;20272;-70
2020/12/27 10:11:24;;;;;;;4.27;3.10;;;1.50;90.90;;;;;;4896615;29;21038;-70
2020/12/27 10:13:50;;;;;;;4.97;3.30;;;1.50;91.00;;;;;;4881553;29;20184;-71
2020/12/27 10:16:15;;;;;;;4.30;2.57;;;1.50;90.50;;;;;;4882295;29;20213;-73
2020/12/27 10:18:41;;;;;;;4.60;2.80;;;1.50;90.30;;;;;;4881387;29;20655;-70
2020/12/27 10:21:09;;;;;;;6.27;3.50;;;1.50;90.30;;;;;;4896567;29;20609;-70
2020/12/27 10:23:35;;;;;;;4.43;3.03;;;1.60;90.30;;;;;;4896515;29;20538;-69
2020/12/27 10:26:05;;;;;;;3.90;3.30;;;1.60;90.30;;;;;;4882486;29;20430;-72
2020/12/27 10:28:31;;;;;;;4.13;2.70;;;1.70;90.30;;;;;;4882233;29;20170;-69
2020/12/27 10:30:57;;;;;;;4.97;3.30;;;1.70;90.30;;;;;;4896790;29;20445;-70
2020/12/27 10:33:22;;;;;;;6.97;2.90;;;1.70;89.80;;;;;;4881906;29;20927;-71
2020/12/27 10:35:48;;;;;;;3.53;2.90;;;1.70;89.70;;;;;;4881314;29;20347;-70
2020/12/27 10:38:13;;;;;;;5.33;3.30;;;1.80;89.90;;;;;;4882214;29;20178;-70
2020/12/27 10:40:39;;;;;;;3.87;3.17;;;1.80;89.20;;;;;;4882247;29;20194;-69
2020/12/27 10:43:05;;;;;;;2.97;2.70;;;1.90;89.80;;;;;;4881059;29;20202;-70
2020/12/27 10:45:30;;;;;;;5.73;3.73;;;1.90;89.70;;;;;;4880906;29;20178;-70
2020/12/27 10:47:56;;;;;;;4.63;2.80;;;1.90;89.20;;;;;;4897414;29;20557;-70
2020/12/27 10:50:22;;;;;;;5.37;3.10;;;1.90;89.20;;;;;;4900805;29;20698;-70
2020/12/27 10:52:49;;;;;;;3.60;2.80;;;1.90;89.50;;;;;;4899076;29;20452;-70
2020/12/27 10:55:15;;;;;;;4.63;2.60;;;2.00;89.00;;;;;;4898610;29;20424;-70
2020/12/27 10:57:40;;;;;;;5.93;3.20;;;2.00;89.00;;;;;;4898830;29;20520;-70
2020/12/27 11:00:06;;;;;;;4.67;2.90;;;2.00;88.70;;;;;;4898952;29;20193;-70
2020/12/27 11:02:31;;;;;;;5.27;2.80;;;2.00;88.50;;;;;;4899894;29;20244;-70
2020/12/27 11:04:57;;;;;;;3.67;2.70;;;2.00;88.80;;;;;;4899174;29;20187;-70
2020/12/27 11:07:23;;;;;;;4.30;3.07;;;2.10;88.50;;;;;;4899193;29;20209;-70
2020/12/27 11:09:48;;;;;;;6.13;3.70;;;2.00;88.20;;;;;;4899096;29;20659;-75
2020/12/27 11:12:14;;;;;;;4.20;2.90;;;2.10;88.10;;;;;;4900248;29;20695;-69
2020/12/27 11:14:40;;;;;;;4.50;3.20;;;2.10;88.30;;;;;;4900095;29;20220;-70
2020/12/27 11:17:06;;;;;;;3.90;2.70;;;2.10;88.40;;;;;;4898466;29;20186;-70
2020/12/27 11:19:32;;;;;;;3.30;2.70;;;2.00;88.10;;;;;;4898457;29;20249;-70
2020/12/27 11:21:57;;;;;;;4.50;2.80;;;2.00;87.90;;;;;;4898768;29;20555;-70
2020/12/27 11:24:23;;;;;;;3.67;3.20;;;2.00;87.80;;;;;;4899053;29;20664;-70
2020/12/27 11:26:54;;;;;;;5.50;3.07;;;2.00;87.80;;;;;;4899695;29;20196;-70
2020/12/27 11:29:23;;;;;;;3.40;2.70;;;2.00;87.50;;;;;;4898938;29;20177;-70
2020/12/27 11:31:53;;;;;;;4.90;2.90;;;2.00;87.70;;;;;;4898677;29;20469;-70
2020/12/27 11:34:18;;;;;;;7.33;3.50;;;2.00;88.00;;;;;;4898745;29;20414;-70
2020/12/27 11:36:47;;;;;;;4.60;2.57;;;2.00;87.70;;;;;;4898727;29;20432;-70
2020/12/27 11:39:13;;;;;;;3.93;2.93;;;2.00;87.80;;;;;;4897917;29;20192;-70
2020/12/27 11:41:39;;;;;;;5.30;3.27;;;2.00;87.80;;;;;;4898589;29;20469;-70
2020/12/27 11:44:05;;;;;;;3.03;2.70;;;2.00;87.30;;;;;;4898593;29;20882;-70
2020/12/27 11:46:33;;;;;;;5.47;3.30;;;2.00;87.60;;;;;;4899263;29;20224;-70
2020/12/27 11:48:59;;;;;;;4.97;2.90;;;2.00;87.40;;;;;;4899519;29;20647;-69
2020/12/27 11:51:25;;;;;;;5.63;3.10;;;2.00;87.40;;;;;;4899552;29;20429;-70
2020/12/27 11:53:52;;;;;;;3.20;2.60;;;2.00;87.80;;;;;;4898523;29;20504;-70
2020/12/27 11:56:18;;;;;;;5.00;3.37;;;2.00;87.50;;;;;;4899195;29;20178;-70
2020/12/27 11:58:44;;;;;;;2.90;2.77;;;2.00;87.50;;;;;;4898674;29;20434;-70
2020/12/27 12:01:11;;;;;;;4.40;3.17;;;2.00;87.20;;;;;;4898185;29;20539;-69
2020/12/27 12:03:37;;;;;;;4.40;3.40;;;2.00;87.70;;;;;;4898397;29;20173;-69
2020/12/27 12:06:03;;;;;;;3.80;3.30;;;2.00;87.90;;;;;;4898187;29;20425;-70
2020/12/27 12:08:28;;;;;;;5.40;3.13;;;2.00;87.90;;;;;;4898981;29;20185;-70
2020/12/27 12:10:54;;;;;;;4.57;2.70;;;2.00;87.70;;;;;;4899275;29;20198;-70
2020/12/27 12:13:20;;;;;;;5.07;3.10;;;2.00;87.60;;;;;;4898965;29;20181;-70
2020/12/27 12:15:46;;;;;;;3.90;3.10;;;2.00;88.00;;;;;;4897815;29;20658;-69
2020/12/27 12:18:12;;;;;;;5.23;3.00;;;2.00;87.80;;;;;;4897968;29;20230;-70
2020/12/27 12:20:45;;;;;;;5.83;2.90;;;2.00;87.70;;;;;;4898047;29;20445;-70
2020/12/27 12:23:15;;;;;;;5.80;3.50;;;2.00;87.90;;;;;;4898336;29;20613;-70
2020/12/27 12:25:44;;;;;;;8.13;3.53;;;2.00;87.60;;;;;;4899306;29;20933;-69
2020/12/27 12:28:10;;;;;;;3.77;2.77;;;2.00;87.70;;;;;;4898806;29;20550;-69
2020/12/27 12:30:43;;;;;;;3.50;2.67;;;2.00;87.60;;;;;;4897771;29;20504;-70
2020/12/27 12:33:09;;;;;;;3.67;2.73;;;2.00;87.40;;;;;;4898985;29;20942;-69
2020/12/27 12:35:36;;;;;;;5.63;3.00;;;2.00;87.80;;;;;;4898957;29;21076;-70
2020/12/27 12:38:03;;;;;;;2.80;2.37;;;2.10;86.90;;;;;;4898246;29;20423;-70
2020/12/27 12:40:28;;;;;;;5.50;3.17;;;2.10;87.30;;;;;;4898909;29;20421;-69
2020/12/27 12:42:54;;;;;;;4.53;3.30;;;2.10;87.60;;;;;;4896844;29;20603;-69
2020/12/27 12:45:20;;;;;;;4.30;2.80;;;2.10;87.70;;;;;;4898790;29;20581;-70
2020/12/27 12:47:45;;;;;;;5.10;3.50;;;2.10;87.40;;;;;;4897702;29;20659;-69
2020/12/27 12:50:11;;;;;;;5.30;3.30;;;2.10;87.20;;;;;;4897796;29;20185;-71
2020/12/27 12:52:38;;;;;;;4.70;3.27;;;2.20;87.20;;;;;;4897596;29;20754;-69
2020/12/27 12:55:06;;;;;;;5.50;3.83;;;2.30;87.60;;;;;;4897903;29;20612;-70
2020/12/27 12:57:31;;;;;;;3.70;2.73;;;2.30;87.40;;;;;;4895879;29;20434;-70
2020/12/27 12:59:57;;;;;;;3.83;3.03;;;2.20;86.90;;;;;;4894805;29;20410;-69
2020/12/27 13:02:23;;;;;;;5.00;2.57;;;2.20;86.90;;;;;;4896882;29;20224;-69
2020/12/27 13:04:51;;;;;;;3.67;3.03;;;2.20;87.20;;;;;;4897721;29;20272;-69
2020/12/27 13:07:18;;;;;;;5.43;2.93;;;2.20;87.60;;;;;;4896739;29;20216;-69
2020/12/27 13:09:44;;;;;;;3.93;2.90;;;2.20;87.70;;;;;;4898088;29;20927;-69
2020/12/27 13:12:09;;;;;;;7.87;2.67;;;2.20;88.00;;;;;;4896767;29;20437;-70
2020/12/27 13:14:35;;;;;;;4.77;2.97;;;2.10;87.50;;;;;;4894693;29;20248;-69
2020/12/27 13:17:01;;;;;;;2.87;2.40;;;2.20;87.20;;;;;;4891562;29;20185;-71
2020/12/27 13:19:26;;;;;;;5.67;2.97;;;2.20;87.20;;;;;;4896743;29;20185;-71
2020/12/27 13:21:52;;;;;;;6.80;3.60;;;2.20;87.40;;;;;;4897359;29;20200;-71
2020/12/27 13:24:17;;;;;;;3.90;2.40;;;2.20;87.00;;;;;;4896233;29;20188;-71
2020/12/27 13:26:44;;;;;;;3.87;2.60;;;2.20;86.80;;;;;;4898222;29;20173;-71
2020/12/27 13:29:10;;;;;;;4.03;2.60;;;2.20;86.30;;;;;;4896558;29;20184;-71
2020/12/27 13:31:40;;;;;;;3.50;2.60;;;2.30;86.20;;;;;;4898062;29;20528;-71
2020/12/27 13:34:05;;;;;;;5.50;2.60;;;2.30;86.50;;;;;;4896833;29;20778;-71
2020/12/27 13:36:32;;;;;;;3.10;2.70;;;2.30;86.10;;;;;;4898118;29;20934;-71
2020/12/27 13:38:58;;;;;;;2.70;2.13;;;2.30;86.30;;;;;;4898108;29;20184;-71
2020/12/27 13:41:25;;;;;;;4.30;2.70;;;2.30;86.50;;;;;;4898221;29;20464;-71
2020/12/27 13:43:50;;;;;;;3.17;2.70;;;2.30;85.90;;;;;;4898167;29;20926;-71
2020/12/27 13:46:17;;;;;;;3.43;2.60;;;2.30;85.40;;;;;;4896733;29;20421;-70
2020/12/27 13:48:47;;;;;;;2.57;2.20;;;2.40;85.30;;;;;;4896473;29;20182;-71
2020/12/27 13:51:19;;;;;;;3.50;2.50;;;2.40;85.70;;;;;;4896465;29;20444;-71
2020/12/27 13:53:44;;;;;;;3.87;2.80;;;2.30;85.60;;;;;;4898096;29;20405;-71
2020/12/27 13:56:10;;;;;;;4.60;2.43;;;2.40;85.60;;;;;;4896797;29;20414;-70
2020/12/27 13:58:36;;;;;;;5.53;2.80;;;2.30;85.60;;;;;;4896336;29;20527;-71
2020/12/27 14:01:01;;;;;;;4.00;2.33;;;2.30;85.70;;;;;;4897946;29;20207;-71
2020/12/27 14:03:29;;;;;;;2.67;2.43;;;2.30;86.30;;;;;;4896422;29;20715;-71
2020/12/27 14:05:55;;;;;;;4.43;2.93;;;2.30;86.30;;;;;;4896566;29;20173;-71
2020/12/27 14:08:20;;;;;;;4.03;2.50;;;2.20;86.50;;;;;;4897558;29;20421;-72
2020/12/27 14:10:46;;;;;;;2.80;2.40;;;2.20;86.60;;;;;;4897845;29;20576;-70
2020/12/27 14:13:16;;;;;;;4.47;2.70;;;2.20;86.80;;;;;;4897705;29;20187;-70
2020/12/27 14:15:42;;;;;;;2.80;2.43;;;2.20;86.70;;;;;;4896584;29;20176;-70
2020/12/27 14:18:13;;;;;;;3.50;2.57;;;2.20;87.00;;;;;;4898068;29;20437;-71
2020/12/27 14:20:39;;;;;;;4.53;3.03;;;2.20;87.50;;;;;;4900122;29;20249;-70
2020/12/27 14:23:04;;;;;;;5.30;2.80;;;2.20;87.30;;;;;;4897935;29;20548;-70
2020/12/27 14:25:30;;;;;;;4.40;2.50;;;2.20;87.50;;;;;;4897683;29;20260;-71
2020/12/27 14:27:57;;;;;;;3.70;2.97;;;2.20;87.50;;;;;;4898276;29;20695;-71
2020/12/27 14:30:24;;;;;;;4.00;2.83;;;2.20;87.70;;;;;;4897299;29;20185;-71
2020/12/27 14:32:50;;;;;;;4.70;2.83;;;2.20;87.60;;;;;;4899195;29;20439;-70
2020/12/27 14:35:16;;;;;;;3.60;2.90;;;2.20;87.40;;;;;;4899774;29;20421;-71
2020/12/27 14:37:42;;;;;;;4.30;2.60;;;2.20;87.10;;;;;;4899790;29;20554;-71
2020/12/27 14:40:07;;;;;;;3.47;2.70;;;2.20;87.30;;;;;;4900965;29;20275;-71
2020/12/27 14:42:33;;;;;;;3.37;2.33;;;2.20;87.10;;;;;;4901050;29;20212;-70
2020/12/27 14:44:59;;;;;;;5.30;2.67;;;2.20;87.10;;;;;;4901047;29;20642;-71
2020/12/27 14:47:24;;;;;;;3.50;2.40;;;2.10;87.20;;;;;;4899409;29;20183;-70
2020/12/27 14:49:50;;;;;;;4.27;2.90;;;2.10;87.20;;;;;;4899698;29;20184;-71
2020/12/27 14:52:16;;;;;;;3.87;2.60;;;2.10;87.10;;;;;;4899616;29;20296;-71
2020/12/27 14:54:41;;;;;;;5.97;2.63;;;2.10;87.60;;;;;;4900794;29;20181;-71
2020/12/27 14:57:07;;;;;;;5.03;2.73;;;2.10;87.70;;;;;;4899307;29;20189;-71
2020/12/27 14:59:32;;;;;;;5.33;3.07;;;2.10;87.50;;;;;;4899590;29;20561;-70
2020/12/27 15:01:58;;;;;;;4.73;3.10;;;2.10;87.30;;;;;;4899040;29;20224;-71
2020/12/27 15:04:24;;;;;;;4.70;2.97;;;2.10;86.90;;;;;;4899357;29;20266;-70
2020/12/27 15:06:59;;;;;;;4.10;3.03;;;2.10;87.30;;;;;;4899067;29;20221;-71
2020/12/27 15:09:25;;;;;;;3.93;3.00;;;2.10;87.10;;;;;;4898823;29;20681;-70
2020/12/27 15:11:50;;;;;;;7.33;4.27;;;2.10;87.20;;;;;;4898970;29;20449;-71
2020/12/27 15:14:16;;;;;;;5.20;3.93;;;2.10;87.20;;;;;;4898459;29;20812;-71
2020/12/27 15:16:42;;;;;;;7.30;3.37;;;2.10;86.70;;;;;;4900050;29;20193;-72
2020/12/27 15:19:08;;;;;;;6.37;3.27;;;2.10;86.30;;;;;;4900186;29;20194;-71
2020/12/27 15:21:39;;;;;;;3.77;2.83;;;2.10;86.30;;;;;;4898817;29;20536;-71
2020/12/27 15:24:05;;;;;;;5.77;3.00;;;2.10;86.50;;;;;;4899401;29;20552;-71
2020/12/27 15:26:30;;;;;;;4.23;3.10;;;2.10;86.00;;;;;;4898528;29;20430;-70
2020/12/27 15:28:56;;;;;;;3.63;2.83;;;2.10;86.10;;;;;;4899518;29;20414;-70
2020/12/27 15:31:22;;;;;;;6.43;3.00;;;2.00;85.80;;;;;;4899765;29;20249;-70
2020/12/27 15:33:47;;;;;;;6.03;3.53;;;2.10;85.60;;;;;;4899712;29;20213;-71
2020/12/27 15:36:13;;;;;;;5.20;3.00;;;2.10;85.20;;;;;;4898651;29;20205;-70
2020/12/27 15:38:39;;;;;;;5.70;3.27;;;2.10;85.50;;;;;;4899358;29;20256;-71
2020/12/27 15:41:05;;;;;;;7.40;3.40;;;2.10;85.40;;;;;;4899554;29;20247;-71
2020/12/27 15:43:31;;;;;;;4.77;2.47;;;2.00;85.40;;;;;;4899857;29;20870;-71
2020/12/27 15:45:59;;;;;;;5.43;2.80;;;2.00;85.40;;;;;;4898226;29;20437;-71
2020/12/27 15:48:24;;;;;;;4.73;2.60;;;2.10;85.00;;;;;;4900137;29;20172;-71
2020/12/27 15:50:50;;;;;;;5.10;2.90;;;2.10;84.60;;;;;;4899437;29;20433;-71
2020/12/27 15:53:16;;;;;;;3.80;2.63;;;2.10;84.30;;;;;;4898074;29;20184;-71
2020/12/27 15:55:41;;;;;;;4.87;2.97;;;2.10;84.20;;;;;;4897806;29;20188;-71
2020/12/27 15:58:08;;;;;;;4.20;2.70;;;2.20;84.60;;;;;;4898505;29;20178;-71
2020/12/27 16:00:37;;;;;;;10.90;7.97;;;2.20;84.80;;;;;;4897632;29;20185;-72
2020/12/27 16:03:03;;;;;;;5.20;2.93;;;2.20;85.10;;;;;;4896577;29;20857;-71
2020/12/27 16:05:29;;;;;;;3.30;2.57;;;2.20;85.60;;;;;;4897708;29;20429;-71
2020/12/27 16:07:55;;;;;;;4.57;3.10;;;2.20;85.80;;;;;;4897600;29;20432;-71
2020/12/27 16:10:21;;;;;;;7.27;3.07;;;2.20;86.10;;;;;;4897825;29;20413;-71
2020/12/27 16:12:47;;;;;;;11.60;3.43;;;2.20;86.50;;;;;;4897885;29;20272;-70
2020/12/27 16:15:12;;;;;;;3.90;3.33;;;2.10;86.80;;;;;;4898504;29;20799;-71
2020/12/27 16:17:38;;;;;;;5.10;3.80;;;2.10;87.10;;;;;;4897485;29;20582;-71
2020/12/27 16:20:04;;;;;;;4.83;2.87;;;2.10;87.40;;;;;;4897865;29;20238;-72
2020/12/27 16:22:30;;;;;;;6.07;3.30;;;2.00;87.60;;;;;;4897602;29;20209;-71
2020/12/27 16:24:56;;;;;;;6.57;4.00;;;2.00;87.80;;;;;;4898136;29;20433;-71
2020/12/27 16:27:22;;;;;;;5.70;4.07;;;1.90;88.00;;;;;;4897416;29;20414;-71
2020/12/27 16:29:54;;;;;;;6.60;3.50;;;1.90;88.10;;;;;;4897267;29;20223;-71
2020/12/27 16:32:19;;;;;;;8.53;4.33;;;1.90;88.60;;;;;;4897050;29;20706;-71
2020/12/27 16:34:45;;;;;;;8.37;4.60;;;1.80;88.30;;;;;;4897260;29;20494;-71
2020/12/27 16:37:11;;;;;;;9.20;3.57;;;1.70;88.60;;;;;;4898859;29;20173;-71
2020/12/27 16:39:36;;;;;;;8.10;3.50;;;1.70;88.90;;;;;;4897146;29;20173;-71
2020/12/27 16:42:04;;;;;;;5.90;3.57;;;1.70;88.90;;;;;;4897325;29;20220;-71
2020/12/27 16:44:29;;;;;;;5.80;4.07;;;1.60;89.00;;;;;;4898334;29;20173;-71
2020/12/27 16:46:56;;;;;;;6.40;3.93;;;1.60;89.10;;;;;;4896865;29;20444;-71
2020/12/27 16:49:22;;;;;;;6.83;4.50;;;1.60;89.20;;;;;;4897576;29;20558;-71
2020/12/27 16:51:52;;;;;;;5.27;3.23;;;1.50;89.00;;;;;;4898656;29;20434;-71
2020/12/27 16:54:18;;;;;;;5.53;3.27;;;1.60;89.50;;;;;;4897443;29;20437;-71
2020/12/27 16:56:46;;;;;;;6.70;3.67;;;1.60;88.80;;;;;;4898514;29;20402;-71
2020/12/27 16:59:12;;;;;;;4.77;3.13;;;1.50;88.40;;;;;;4896338;29;20422;-71
2020/12/27 17:01:37;;;;;;;6.80;3.60;;;1.60;88.10;;;;;;4897153;29;20488;-71
2020/12/27 17:04:04;;;;;;;5.93;3.43;;;1.60;88.30;;;;;;4896970;29;20536;-71
2020/12/27 17:06:29;;;;;;;4.60;3.37;;;1.60;88.00;;;;;;4896692;29;20249;-71
2020/12/27 17:08:55;;;;;;;5.53;3.80;;;1.60;87.60;;;;;;4896164;29;20808;-71
2020/12/27 17:11:25;;;;;;;9.23;4.10;;;1.70;87.60;;;;;;4896309;29;20201;-71
2020/12/27 17:13:51;;;;;;;5.40;3.73;;;1.70;87.40;;;;;;4896202;29;20187;-71
2020/12/27 17:16:27;;;;;;;5.40;3.60;;;1.70;87.30;;;;;;4896429;29;20500;-71
2020/12/27 17:18:54;;;;;;;7.37;3.53;;;1.70;87.40;;;;;;4897545;29;21037;-71
2020/12/27 17:21:20;;;;;;;7.97;3.47;;;1.70;87.30;;;;;;4896189;29;20461;-71
2020/12/27 17:23:46;;;;;;;4.37;3.40;;;1.60;87.10;;;;;;4896403;29;20931;-71
2020/12/27 17:26:12;;;;;;;5.63;2.97;;;1.60;87.10;;;;;;4896265;29;20432;-70
2020/12/27 17:28:38;;;;;;;4.83;3.30;;;1.60;87.20;;;;;;4896475;29;20725;-70
2020/12/27 17:31:04;;;;;;;8.03;3.37;;;1.60;87.30;;;;;;4897564;29;20508;-71
2020/12/27 17:33:30;;;;;;;6.70;3.20;;;1.60;87.20;;;;;;4896792;29;21005;-71
2020/12/27 17:35:56;;;;;;;5.70;3.53;;;1.60;87.50;;;;;;4896105;29;20189;-71
2020/12/27 17:38:22;;;;;;;5.40;3.40;;;1.60;87.30;;;;;;4895525;29;20241;-72
2020/12/27 17:40:47;;;;;;;5.57;3.60;;;1.60;87.50;;;;;;4896598;29;20479;-71
2020/12/27 17:43:15;;;;;;;4.47;3.47;;;1.60;87.50;;;;;;4896597;29;20505;-71
2020/12/27 17:45:40;;;;;;;4.90;3.10;;;1.60;87.30;;;;;;4896638;29;20184;-72
2020/12/27 17:48:07;;;;;;;5.03;3.20;;;1.50;87.20;;;;;;4899483;29;20444;-72
2020/12/27 17:50:33;;;;;;;6.67;3.67;;;1.60;87.20;;;;;;4898742;29;20282;-73
2020/12/27 17:52:59;;;;;;;7.30;4.20;;;1.60;87.00;;;;;;4898481;29;20432;-71
2020/12/27 17:55:25;;;;;;;8.53;3.00;;;1.60;87.00;;;;;;4896261;29;20426;-71
2020/12/27 17:57:51;;;;;;;4.90;3.13;;;1.70;86.70;;;;;;4894334;29;20962;-72
2020/12/27 18:00:17;;;;;;;8.60;3.60;;;1.70;86.50;;;;;;4897063;29;20185;-70
2020/12/27 18:02:43;;;;;;;13.57;3.83;;;1.70;86.50;;;;;;4896017;29;20209;-72
2020/12/27 18:05:08;;;;;;;5.03;3.07;;;1.70;86.40;;;;;;4895833;29;20437;-71
2020/12/27 18:07:34;;;;;;;5.30;3.23;;;1.70;86.40;;;;;;4896547;29;20315;-72
2020/12/27 18:10:00;;;;;;;6.13;3.37;;;1.70;86.40;;;;;;4899870;29;20567;-71
2020/12/27 18:12:26;;;;;;;6.10;3.33;;;1.70;86.30;;;;;;4899419;29;20233;-71
2020/12/27 18:14:51;;;;;;;4.80;3.23;;;1.70;86.00;;;;;;4899537;29;20177;-70
2020/12/27 18:17:17;;;;;;;5.80;3.77;;;1.70;85.90;;;;;;4899747;29;20200;-71
2020/12/27 18:19:43;;;;;;;6.23;3.33;;;1.70;85.90;;;;;;4899596;29;20674;-72
2020/12/27 18:22:10;;;;;;;5.13;3.20;;;1.80;85.50;;;;;;4900437;29;20508;-71
2020/12/27 18:24:35;;;;;;;7.13;3.60;;;1.80;85.20;;;;;;4900792;29;20181;-71
2020/12/27 18:27:02;;;;;;;6.10;3.53;;;1.80;85.10;;;;;;4899044;29;20486;-71
2020/12/27 18:29:28;;;;;;;5.93;3.30;;;1.80;84.90;;;;;;4899196;29;20437;-71
2020/12/27 18:31:54;;;;;;;7.07;3.50;;;1.80;84.80;;;;;;4899416;29;20453;-70
2020/12/27 18:34:22;;;;;;;5.83;3.43;;;1.80;84.90;;;;;;4899446;29;20626;-71
2020/12/27 18:36:48;;;;;;;6.90;3.43;;;1.80;84.60;;;;;;4898647;29;20219;-71
2020/12/27 18:39:14;;;;;;;5.77;3.50;;;1.90;84.50;;;;;;4900286;29;20903;-71
2020/12/27 18:41:40;;;;;;;9.17;3.90;;;1.90;84.60;;;;;;4899343;29;20528;-71
2020/12/27 18:44:06;;;;;;;6.17;2.90;;;1.90;84.80;;;;;;4899238;29;20421;-70
2020/12/27 18:46:32;;;;;;;6.10;3.47;;;1.90;84.90;;;;;;4900908;29;20488;-70
2020/12/27 18:48:58;;;;;;;5.17;2.90;;;1.90;84.70;;;;;;4899959;29;20344;-70
2020/12/27 18:51:24;;;;;;;4.03;3.43;;;1.90;84.40;;;;;;4898686;29;20201;-70
2020/12/27 18:53:50;;;;;;;6.93;3.50;;;1.90;84.20;;;;;;4899125;29;20437;-70
2020/12/27 18:56:18;;;;;;;4.57;3.03;;;1.90;84.10;;;;;;4900408;29;20421;-70
2020/12/27 18:58:44;;;;;;;4.03;3.03;;;1.90;84.00;;;;;;4899903;29;20410;-71
2020/12/27 19:01:12;;;;;;;8.97;5.60;;;1.90;84.70;;;;;;4898315;29;20469;-71